Time;durP1;ratioP1;P1;durP2;ratioP2;P2;SDS_P1;SDS_P2;PMS_P1;PMS_P2;Temp;Humidity;BMP_temperature;BMP_pressure;BME280_temperature;BME280_humidity;BME280_pressure;Samples;Min_cycle;Max_cycle;Signal;HPM_P1;HPM_P2
2022/05/01 00:00:12;;;;;;;;;;;7.30;99.90;;;;;;5049708;28;19925;-76
2022/05/01 00:02:39;;;;;;;;;;;7.30;99.90;;;;;;5045360;28;19931;-76
2022/05/01 00:05:06;;;;;;;;;;;7.20;99.90;;;;;;5049691;28;20318;-76
2022/05/01 00:07:33;;;;;;;;;;;7.20;99.90;;;;;;5049758;28;19931;-76
2022/05/01 00:09:59;;;;;;;;;;;7.10;99.90;;;;;;5051618;28;20020;-76
2022/05/01 00:12:26;;;;;;;;;;;7.00;99.90;;;;;;5049331;28;19931;-76
2022/05/01 00:14:53;;;;;;;;;;;7.00;99.90;;;;;;5052890;28;19931;-76
2022/05/01 00:17:19;;;;;;;;;;;7.00;99.90;;;;;;5051816;28;19925;-76
2022/05/01 00:19:46;;;;;;;;;;;6.90;99.90;;;;;;5052651;28;19968;-76
2022/05/01 00:22:23;;;;;;;;;;;6.90;99.90;;;;;;5052884;28;19924;-76
2022/05/01 00:24:49;;;;;;;;;;;6.90;99.90;;;;;;5052616;28;19925;-76
2022/05/01 00:27:17;;;;;;;;;;;6.90;99.90;;;;;;5049736;28;20027;-76
2022/05/01 00:29:46;;;;;;;;;;;6.80;99.90;;;;;;5051827;28;20019;-76
2022/05/01 00:32:13;;;;;;;;;;;6.80;99.90;;;;;;5051652;28;19925;-76
2022/05/01 00:37:26;;;;;;;;;;;6.80;99.90;;;;;;5051360;28;19929;-76
2022/05/01 00:39:52;;;;;;;;;;;6.80;99.90;;;;;;5049514;28;19925;-76
2022/05/01 00:42:19;;;;;;;;;;;6.80;99.90;;;;;;5052514;28;20023;-76
2022/05/01 00:44:46;;;;;;;;;;;6.90;99.90;;;;;;5051901;28;19979;-77
2022/05/01 00:47:16;;;;;;;;;;;6.80;99.90;;;;;;5057434;28;19931;-76
2022/05/01 00:49:42;;;;;;;;;;;6.80;99.90;;;;;;5052109;28;19924;-76
2022/05/01 00:52:10;;;;;;;;;;;6.80;99.90;;;;;;5052612;28;20402;-77
2022/05/01 00:54:37;;;;;;;;;;;6.70;99.90;;;;;;5049864;28;20016;-77
2022/05/01 00:57:07;;;;;;;;;;;6.70;99.90;;;;;;5050621;28;20020;-76
2022/05/01 00:59:36;;;;;;;;;;;6.70;99.90;;;;;;5062738;28;20375;-76
2022/05/01 01:02:03;;;;;;;;;;;6.80;99.90;;;;;;5052016;28;20249;-77
2022/05/01 01:04:30;;;;;;;;;;;6.80;99.90;;;;;;5052053;28;19947;-75
2022/05/01 01:06:56;;;;;;;;;;;6.80;99.90;;;;;;5045704;28;20322;-75
2022/05/01 01:09:23;;;;;;;;;;;6.90;99.90;;;;;;5055122;28;20002;-76
2022/05/01 01:14:49;;;;;;;;;;;7.00;99.90;;;;;;5039082;28;19924;-76
2022/05/01 01:17:16;;;;;;;;;;;7.10;99.90;;;;;;5046017;28;20007;-75
2022/05/01 01:19:42;;;;;;;;;;;7.20;99.90;;;;;;5055371;28;20592;-76
2022/05/01 01:22:09;;;;;;;;;;;7.20;99.90;;;;;;5055806;28;20015;-76
2022/05/01 01:24:38;;;;;;;;;;;7.30;99.90;;;;;;5055604;28;19960;-76
2022/05/01 01:27:06;;;;;;;;;;;7.30;99.90;;;;;;5055507;28;19931;-76
2022/05/01 01:32:22;;;;;;;;;;;7.50;99.90;;;;;;5050812;28;20390;-76
2022/05/01 01:34:50;;;;;;;;;;;7.50;99.90;;;;;;5054622;28;19925;-76
2022/05/01 01:37:18;;;;;;;;;;;7.40;99.90;;;;;;5050042;28;20482;-75
2022/05/01 01:39:46;;;;;;;;;;;7.50;99.90;;;;;;5046114;28;19951;-76
2022/05/01 01:42:15;;;;;;;;;;;7.40;99.90;;;;;;5054761;28;20470;-76
2022/05/01 01:44:42;;;;;;;;;;;7.40;99.90;;;;;;5054750;28;20019;-76
2022/05/01 01:47:11;;;;;;;;;;;7.40;99.90;;;;;;5050800;28;19931;-76
2022/05/01 01:49:38;;;;;;;;;;;7.40;99.90;;;;;;5054616;28;20276;-76
2022/05/01 01:52:05;;;;;;;;;;;7.40;99.90;;;;;;5054365;28;20011;-76
2022/05/01 01:54:31;;;;;;;;;;;7.30;99.90;;;;;;5055546;28;20483;-76
2022/05/01 01:57:05;;;;;;;;;;;7.30;99.90;;;;;;5053779;28;19925;-77
2022/05/01 01:59:32;;;;;;;;;;;7.20;99.90;;;;;;5055395;28;19931;-77
2022/05/01 02:02:03;;;;;;;;;;;7.20;99.90;;;;;;5054938;28;20027;-76
2022/05/01 02:04:30;;;;;;;;;;;7.10;99.90;;;;;;5054550;28;20361;-76
2022/05/01 02:06:56;;;;;;;;;;;7.10;99.90;;;;;;5054582;28;19933;-75
2022/05/01 02:09:23;;;;;;;;;;;7.10;99.90;;;;;;5053548;28;19931;-76
2022/05/01 02:11:50;;;;;;;;;;;7.10;99.90;;;;;;5054199;28;19954;-76
2022/05/01 02:14:17;;;;;;;;;;;7.10;99.90;;;;;;5054364;28;19933;-76
2022/05/01 02:16:44;;;;;;;;;;;7.00;99.90;;;;;;5053066;28;20338;-76
2022/05/01 02:19:10;;;;;;;;;;;7.00;99.90;;;;;;5054086;28;20375;-76
2022/05/01 02:21:37;;;;;;;;;;;7.10;99.90;;;;;;5054395;28;20089;-76
2022/05/01 02:24:10;;;;;;;;;;;7.10;99.90;;;;;;5052210;28;20020;-76
2022/05/01 02:26:37;;;;;;;;;;;7.10;99.90;;;;;;5054220;28;19967;-76
2022/05/01 02:29:09;;;;;;;;;;;7.10;99.90;;;;;;5052875;28;19929;-76
2022/05/01 02:31:38;;;;;;;;;;;7.10;99.90;;;;;;5053159;28;19939;-76
2022/05/01 02:34:05;;;;;;;;;;;7.20;99.90;;;;;;5054395;28;19921;-76
2022/05/01 02:36:31;;;;;;;;;;;7.20;99.90;;;;;;5052622;28;19927;-76
2022/05/01 02:38:58;;;;;;;;;;;7.10;99.90;;;;;;5053097;28;19920;-76
2022/05/01 02:41:25;;;;;;;;;;;7.10;99.90;;;;;;5053251;28;19921;-76
2022/05/01 02:43:52;;;;;;;;;;;7.20;99.90;;;;;;5052938;28;20011;-76
2022/05/01 02:46:18;;;;;;;;;;;7.20;99.90;;;;;;5053138;28;20012;-76
2022/05/01 02:48:45;;;;;;;;;;;7.20;99.90;;;;;;5052815;28;19925;-76
2022/05/01 02:51:12;;;;;;;;;;;7.20;99.90;;;;;;5053762;28;19921;-75
2022/05/01 02:53:39;;;;;;;;;;;7.20;99.90;;;;;;5052441;28;19927;-76
2022/05/01 02:56:06;;;;;;;;;;;7.20;99.90;;;;;;5052748;28;19929;-75
2022/05/01 02:58:32;;;;;;;;;;;7.20;99.90;;;;;;5050463;28;19927;-76
2022/05/01 03:01:02;;;;;;;;;;;7.30;99.90;;;;;;5051438;28;20011;-76
2022/05/01 03:03:29;;;;;;;;;;;7.30;99.90;;;;;;5052606;28;19920;-76
2022/05/01 03:05:58;;;;;;;;;;;7.30;99.90;;;;;;5049267;28;19927;-76
2022/05/01 03:08:25;;;;;;;;;;;7.30;99.90;;;;;;5051211;28;19974;-76
2022/05/01 03:10:51;;;;;;;;;;;7.30;99.90;;;;;;5052028;28;19912;-75
2022/05/01 03:13:18;;;;;;;;;;;7.30;99.90;;;;;;5053434;28;19931;-76
2022/05/01 03:15:45;;;;;;;;;;;7.20;99.90;;;;;;5047509;28;19972;-75
2022/05/01 03:23:44;;;;;;;;;;;7.30;99.90;;;;;;5051180;28;19924;-75
2022/05/01 03:26:11;;;;;;;;;;;7.30;99.90;;;;;;5048220;28;19928;-76
2022/05/01 03:28:39;;;;;;;;;;;7.30;99.90;;;;;;5047346;28;19964;-76
2022/05/01 03:31:09;;;;;;;;;;;7.30;99.90;;;;;;5052294;28;19931;-76
2022/05/01 03:33:36;;;;;;;;;;;7.30;99.90;;;;;;5053004;28;19982;-76
2022/05/01 03:36:07;;;;;;;;;;;7.30;99.90;;;;;;5048109;28;19963;-76
2022/05/01 03:38:36;;;;;;;;;;;7.20;99.90;;;;;;5050540;28;19920;-75
2022/05/01 03:41:04;;;;;;;;;;;7.20;99.90;;;;;;5051981;28;19921;-76
2022/05/01 03:43:32;;;;;;;;;;;7.20;99.90;;;;;;5032778;28;20011;-76
2022/05/01 03:46:05;;;;;;;;;;;7.20;99.90;;;;;;5051680;28;19921;-76
2022/05/01 03:48:32;;;;;;;;;;;7.20;99.90;;;;;;5052898;28;19986;-76
2022/05/01 03:50:59;;;;;;;;;;;7.30;99.90;;;;;;5046359;28;19976;-76
2022/05/01 03:53:26;;;;;;;;;;;7.30;99.90;;;;;;5052084;28;20003;-75
2022/05/01 03:55:56;;;;;;;;;;;7.30;99.90;;;;;;5048007;28;19925;-76
2022/05/01 03:58:22;;;;;;;;;;;7.30;99.90;;;;;;5047467;28;19935;-76
2022/05/01 04:00:50;;;;;;;;;;;7.40;99.90;;;;;;5048763;28;20466;-76
2022/05/01 04:03:28;;;;;;;;;;;7.40;99.90;;;;;;5050342;28;19944;-76
2022/05/01 04:05:55;;;;;;;;;;;7.40;99.90;;;;;;5048747;28;19954;-76
2022/05/01 04:08:22;;;;;;;;;;;7.30;99.90;;;;;;5052326;28;19928;-76
2022/05/01 04:10:49;;;;;;;;;;;7.30;99.90;;;;;;5051324;28;20003;-76
2022/05/01 04:13:19;;;;;;;;;;;7.30;99.90;;;;;;5050348;28;19924;-76
2022/05/01 04:15:45;;;;;;;;;;;7.20;99.90;;;;;;5051017;28;20007;-76
2022/05/01 04:18:12;;;;;;;;;;;7.30;99.90;;;;;;5051327;28;20011;-76
2022/05/01 04:20:47;;;;;;;;;;;7.30;99.90;;;;;;5048850;28;19920;-77
2022/05/01 04:23:14;;;;;;;;;;;7.30;99.90;;;;;;5047363;28;19920;-77
2022/05/01 04:25:40;;;;;;;;;;;7.30;99.90;;;;;;5043286;28;19976;-76
2022/05/01 04:28:08;;;;;;;;;;;7.40;99.90;;;;;;5052318;28;19932;-76
2022/05/01 04:30:36;;;;;;;;;;;7.40;99.90;;;;;;5050874;28;19920;-76
2022/05/01 04:33:07;;;;;;;;;;;7.40;99.90;;;;;;5050717;28;20419;-76
2022/05/01 04:35:38;;;;;;;;;;;7.50;99.90;;;;;;5050919;28;19920;-76
2022/05/01 04:38:17;;;;;;;;;;;7.50;99.90;;;;;;5049420;28;19944;-76
2022/05/01 04:40:48;;;;;;;;;;;7.60;99.90;;;;;;5049770;28;19927;-76
2022/05/01 04:43:19;;;;;;;;;;;7.60;99.90;;;;;;5049832;28;20003;-76
2022/05/01 04:45:47;;;;;;;;;;;7.70;99.90;;;;;;5051853;28;19935;-76
2022/05/01 04:48:14;;;;;;;;;;;7.70;99.90;;;;;;5041231;28;19927;-76
2022/05/01 04:50:41;;;;;;;;;;;7.80;99.90;;;;;;5048698;28;19944;-76
2022/05/01 04:53:09;;;;;;;;;;;7.90;99.90;;;;;;5049801;28;19927;-76
2022/05/01 04:55:40;;;;;;;;;;;8.00;99.90;;;;;;5076940;28;19921;-76
2022/05/01 04:58:08;;;;;;;;;;;8.00;99.90;;;;;;5048039;28;19921;-76
2022/05/01 05:00:35;;;;;;;;;;;8.10;99.90;;;;;;5051049;28;19927;-76
2022/05/01 05:03:03;;;;;;;;;;;8.20;99.90;;;;;;5042540;28;19921;-75
2022/05/01 05:05:31;;;;;;;;;;;8.30;99.90;;;;;;5047562;28;19927;-76
2022/05/01 05:10:53;;;;;;;;;;;8.50;99.90;;;;;;5048851;28;19978;-76
2022/05/01 05:13:24;;;;;;;;;;;8.70;99.90;;;;;;5048187;28;19921;-76
2022/05/01 05:15:50;;;;;;;;;;;8.80;99.90;;;;;;5045888;28;20387;-76
2022/05/01 05:18:17;;;;;;;;;;;8.80;99.90;;;;;;5042425;28;20007;-76
2022/05/01 05:20:44;;;;;;;;;;;8.90;99.90;;;;;;5042801;28;21302;-76
2022/05/01 05:23:10;;;;;;;;;;;9.00;99.90;;;;;;5052284;28;20438;-76
2022/05/01 05:25:37;;;;;;;;;;;9.10;99.90;;;;;;5053055;28;19921;-76
2022/05/01 05:28:07;;;;;;;;;;;9.10;99.90;;;;;;5049100;28;20011;-76
2022/05/01 05:30:35;;;;;;;;;;;9.20;99.90;;;;;;5047617;28;19920;-76
2022/05/01 05:33:05;;;;;;;;;;;9.30;99.90;;;;;;5048996;28;19921;-76
2022/05/01 05:35:32;;;;;;;;;;;9.40;99.90;;;;;;5050122;28;20008;-76
2022/05/01 05:37:59;;;;;;;;;;;9.50;99.90;;;;;;5049275;28;19931;-76
2022/05/01 05:40:27;;;;;;;;;;;9.60;99.90;;;;;;5045837;28;19927;-76
2022/05/01 05:42:54;;;;;;;;;;;9.60;99.90;;;;;;5045992;28;19921;-76
2022/05/01 05:45:21;;;;;;;;;;;9.70;99.90;;;;;;5041650;28;19920;-75
2022/05/01 05:47:48;;;;;;;;;;;9.80;99.90;;;;;;5046674;28;19921;-76
2022/05/01 05:50:18;;;;;;;;;;;10.00;99.90;;;;;;5050543;28;19927;-76
2022/05/01 05:52:45;;;;;;;;;;;10.00;99.90;;;;;;5049201;28;20036;-75
2022/05/01 05:55:11;;;;;;;;;;;10.10;99.90;;;;;;5051324;28;19937;-76
2022/05/01 05:57:38;;;;;;;;;;;10.20;99.90;;;;;;5045536;28;20602;-76
2022/05/01 06:00:07;;;;;;;;;;;10.20;99.90;;;;;;5051455;28;19920;-76
2022/05/01 06:02:36;;;;;;;;;;;10.20;99.90;;;;;;5052322;28;19971;-76
2022/05/01 06:05:04;;;;;;;;;;;10.20;99.90;;;;;;5050811;28;19931;-76
2022/05/01 06:07:30;;;;;;;;;;;10.30;99.90;;;;;;5050984;28;20493;-76
2022/05/01 06:09:57;;;;;;;;;;;10.30;99.90;;;;;;5050635;28;19920;-77
2022/05/01 06:12:24;;;;;;;;;;;10.30;99.90;;;;;;5050009;28;19920;-77
2022/05/01 06:14:51;;;;;;;;;;;10.20;99.90;;;;;;5050717;28;20423;-76
2022/05/01 06:17:17;;;;;;;;;;;10.20;99.90;;;;;;5053406;28;19931;-76
2022/05/01 06:19:44;;;;;;;;;;;10.20;99.90;;;;;;5051944;28;19924;-74
2022/05/01 06:22:11;;;;;;;;;;;10.30;99.90;;;;;;5048214;28;19928;-76
2022/05/01 06:24:38;;;;;;;;;;;10.40;99.90;;;;;;5062596;28;19924;-76
2022/05/01 06:27:08;;;;;;;;;;;10.40;99.90;;;;;;5046781;28;20015;-76
2022/05/01 06:29:36;;;;;;;;;;;10.50;99.90;;;;;;5052064;28;20016;-76
2022/05/01 06:32:02;;;;;;;;;;;10.70;99.90;;;;;;5050011;28;19920;-76
2022/05/01 06:34:29;;;;;;;;;;;10.80;99.90;;;;;;5051980;28;19924;-75
2022/05/01 06:36:56;;;;;;;;;;;11.00;99.90;;;;;;5047108;28;19924;-76
2022/05/01 06:39:25;;;;;;;;;;;11.00;99.90;;;;;;5051214;28;20510;-76
2022/05/01 06:41:53;;;;;;;;;;;11.10;99.90;;;;;;5074763;28;19929;-76
2022/05/01 06:44:20;;;;;;;;;;;11.10;99.90;;;;;;5047353;28;20324;-76
2022/05/01 06:46:46;;;;;;;;;;;11.20;99.90;;;;;;5047854;28;19927;-77
2022/05/01 06:49:13;;;;;;;;;;;11.30;99.90;;;;;;5050863;28;19924;-76
2022/05/01 06:51:44;;;;;;;;;;;11.50;99.90;;;;;;5050308;28;20399;-76
2022/05/01 06:54:10;;;;;;;;;;;11.60;99.90;;;;;;5051782;28;19974;-76
2022/05/01 06:56:37;;;;;;;;;;;11.70;99.90;;;;;;5044502;28;20036;-76
2022/05/01 06:59:04;;;;;;;;;;;11.80;99.90;;;;;;5044438;28;19920;-76
2022/05/01 07:01:31;;;;;;;;;;;12.10;99.90;;;;;;5043305;28;19927;-76
2022/05/01 07:04:00;;;;;;;;;;;12.40;99.90;;;;;;5049585;28;20541;-77
2022/05/01 07:06:27;;;;;;;;;;;12.90;99.90;;;;;;5047295;28;20637;-76
2022/05/01 07:08:54;;;;;;;;;;;13.20;99.90;;;;;;5052076;28;20118;-76
2022/05/01 07:11:20;;;;;;;;;;;13.40;99.90;;;;;;5045445;28;19924;-76
2022/05/01 07:13:47;;;;;;;;;;;13.60;99.90;;;;;;5048251;28;20007;-77
2022/05/01 07:16:14;;;;;;;;;;;13.80;99.90;;;;;;5049004;28;20283;-74
2022/05/01 07:18:40;;;;;;;;;;;13.90;99.90;;;;;;5048953;28;19921;-74
2022/05/01 07:21:09;;;;;;;;;;;14.00;99.90;;;;;;5044695;28;19920;-74
2022/05/01 07:23:35;;;;;;;;;;;13.90;99.90;;;;;;5048227;28;19967;-75
2022/05/01 07:26:02;;;;;;;;;;;13.70;99.90;;;;;;5044655;28;20383;-74
2022/05/01 07:28:29;;;;;;;;;;;13.70;99.90;;;;;;5046887;28;19920;-75
2022/05/01 07:30:55;;;;;;;;;;;13.90;99.90;;;;;;5050633;28;19921;-75
2022/05/01 07:33:23;;;;;;;;;;;13.90;99.90;;;;;;5050973;28;19927;-75
2022/05/01 07:35:49;;;;;;;;;;;14.00;99.90;;;;;;5041333;28;19929;-74
2022/05/01 07:38:17;;;;;;;;;;;14.20;99.90;;;;;;5048672;28;19920;-74
2022/05/01 07:40:50;;;;;;;;;;;14.40;99.90;;;;;;5051159;28;19925;-75
2022/05/01 07:43:16;;;;;;;;;;;14.60;99.90;;;;;;5080716;28;19943;-75
2022/05/01 07:45:43;;;;;;;;;;;14.80;99.90;;;;;;5048208;28;20415;-75
2022/05/01 07:48:12;;;;;;;;;;;14.80;99.90;;;;;;5038950;28;19932;-74
2022/05/01 07:50:39;;;;;;;;;;;14.50;99.90;;;;;;5042216;28;20003;-75
2022/05/01 07:53:08;;;;;;;;;;;14.50;99.90;;;;;;5044351;28;20594;-75
2022/05/01 07:55:35;;;;;;;;;;;14.50;99.90;;;;;;5048815;28;19921;-75
2022/05/01 07:58:01;;;;;;;;;;;14.60;99.90;;;;;;5048084;28;19925;-74
2022/05/01 08:00:28;;;;;;;;;;;14.70;99.90;;;;;;5049131;28;19920;-75
2022/05/01 08:05:41;;;;;;;;;;;14.90;99.90;;;;;;5048775;28;19921;-75
2022/05/01 08:08:07;;;;;;;;;;;14.90;99.90;;;;;;5047040;28;19921;-74
2022/05/01 08:10:34;;;;;;;;;;;15.10;99.90;;;;;;5048444;28;19935;-74
2022/05/01 08:13:03;;;;;;;;;;;15.30;99.90;;;;;;5045973;28;20007;-75
2022/05/01 08:15:30;;;;;;;;;;;15.40;99.90;;;;;;5047406;28;19924;-74
2022/05/01 08:21:05;;;;;;;;;;;15.70;99.90;;;;;;5048969;28;19928;-75
2022/05/01 08:23:30;;;;;;;;;;;16.20;99.90;;;;;;5045036;28;19927;-75
2022/05/01 08:26:03;;;;;;;;;;;16.40;99.90;;;;;;5044385;28;19929;-75
2022/05/01 08:28:30;;;;;;;;;;;16.90;99.90;;;;;;5050904;28;19931;-74
2022/05/01 08:30:57;;;;;;;;;;;17.70;99.90;;;;;;5050931;28;19921;-75
2022/05/01 08:33:24;;;;;;;;;;;18.30;99.90;;;;;;5049512;28;19921;-74
2022/05/01 08:35:51;;;;;;;;;;;19.10;99.90;;;;;;5047714;28;19928;-74
2022/05/01 08:38:18;;;;;;;;;;;19.70;99.90;;;;;;5050166;28;19927;-73
2022/05/01 08:40:45;;;;;;;;;;;19.80;99.90;;;;;;5048392;28;19924;-68
2022/05/01 08:43:17;;;;;;;;;;;19.80;99.90;;;;;;5041066;28;20318;-70
2022/05/01 08:45:53;;;;;;;;;;;19.70;99.90;;;;;;5044861;28;19929;-69
2022/05/01 08:48:22;;;;;;;;;;;19.60;99.90;;;;;;5045391;28;20011;-69
2022/05/01 08:50:50;;;;;;;;;;;19.80;99.90;;;;;;5044278;28;19927;-70
2022/05/01 08:53:17;;;;;;;;;;;20.00;99.90;;;;;;5046980;28;19921;-69
2022/05/01 08:55:45;;;;;;;;;;;19.70;99.90;;;;;;5042132;28;20012;-69
2022/05/01 08:58:13;;;;;;;;;;;19.20;99.90;;;;;;5048107;28;20343;-70
2022/05/01 09:00:43;;;;;;;;;;;19.10;99.90;;;;;;5046906;28;20003;-70
2022/05/01 09:03:10;;;;;;;;;;;19.70;99.90;;;;;;5048899;28;19924;-70
2022/05/01 09:05:39;;;;;;;;;;;20.40;99.90;;;;;;5043426;28;19928;-70
2022/05/01 09:08:05;;;;;;;;;;;20.40;99.90;;;;;;5046437;28;19920;-71
2022/05/01 09:10:33;;;;;;;;;;;19.70;99.90;;;;;;5046923;28;19960;-70
2022/05/01 09:12:59;;;;;;;;;;;20.10;99.90;;;;;;5047698;28;19928;-70
2022/05/01 09:15:36;;;;;;;;;;;20.60;99.90;;;;;;5044722;28;20015;-71
2022/05/01 09:18:04;;;;;;;;;;;21.10;99.90;;;;;;5044071;28;20423;-71
2022/05/01 09:20:32;;;;;;;;;;;21.40;99.90;;;;;;5043071;28;20015;-70
2022/05/01 09:22:59;;;;;;;;;;;21.80;99.90;;;;;;5046446;28;19920;-70
2022/05/01 09:25:27;;;;;;;;;;;21.90;99.90;;;;;;5039961;28;19935;-70
2022/05/01 09:27:57;;;;;;;;;;;21.40;99.90;;;;;;5043397;28;19983;-70
2022/05/01 09:30:34;;;;;;;;;;;21.10;99.90;;;;;;5051317;28;19920;-71
2022/05/01 09:33:01;;;;;;;;;;;21.90;99.90;;;;;;5049709;28;19928;-71
2022/05/01 09:35:32;;;;;;;;;;;22.30;99.90;;;;;;5049791;28;20011;-70
2022/05/01 09:38:17;;;;;;;;;;;22.90;99.90;;;;;;5046884;28;20008;-70
2022/05/01 09:40:45;;;;;;;;;;;23.80;99.90;;;;;;5049203;28;19928;-70
2022/05/01 09:43:30;;;;;;;;;;;23.50;99.90;;;;;;5049501;28;20019;-70
2022/05/01 09:46:09;;;;;;;;;;;22.80;99.90;;;;;;5055727;28;20019;-70
2022/05/01 09:48:36;;;;;;;;;;;22.40;99.90;;;;;;5048685;28;20027;-70
2022/05/01 09:51:19;;;;;;;;;;;22.10;99.90;;;;;;5049110;28;19920;-70
2022/05/01 09:53:46;;;;;;;;;;;21.30;99.90;;;;;;5052924;28;20336;-69
2022/05/01 09:56:13;;;;;;;;;;;21.60;99.90;;;;;;5082203;28;20497;-70
2022/05/01 09:58:45;;;;;;;;;;;21.90;99.90;;;;;;5048316;28;19928;-70
2022/05/01 10:01:16;;;;;;;;;;;22.30;99.90;;;;;;5049710;28;20011;-70
2022/05/01 10:03:47;;;;;;;;;;;22.30;99.90;;;;;;5049301;28;19925;-69
2022/05/01 10:06:15;;;;;;;;;;;22.70;99.90;;;;;;5048121;28;19928;-70
2022/05/01 10:08:43;;;;;;;;;;;23.70;99.90;;;;;;5045534;28;20008;-70
2022/05/01 10:11:17;;;;;;;;;;;23.30;99.90;;;;;;5045285;28;20324;-69
2022/05/01 10:13:45;;;;;;;;;;;22.80;99.90;;;;;;5046130;28;19971;-70
2022/05/01 10:16:15;;;;;;;;;;;23.20;99.90;;;;;;5050020;28;20022;-69
2022/05/01 10:18:47;;;;;;;;;;;23.70;99.90;;;;;;5049949;28;19924;-69
2022/05/01 10:21:34;;;;;;;;;;;24.30;99.90;;;;;;5045428;28;20383;-70
2022/05/01 10:24:02;;;;;;;;;;;25.10;99.90;;;;;;5080375;28;19925;-71
2022/05/01 10:26:31;;;;;;;;;;;25.00;99.70;;;;;;5048343;28;19960;-70
2022/05/01 10:29:25;;;;;;;;;;;25.10;99.10;;;;;;5046580;28;19925;-71
2022/05/01 10:32:22;;;;;;;;;;;24.40;99.80;;;;;;5046180;28;19975;-71
2022/05/01 10:35:28;;;;;;;;;;;23.50;99.20;;;;;;5044214;28;19932;-71
2022/05/01 10:38:02;;;;;;;;;;;22.30;99.90;;;;;;5049085;28;20000;-71
2022/05/01 10:40:39;;;;;;;;;;;22.00;99.90;;;;;;5051020;28;20579;-71
2022/05/01 10:43:24;;;;;;;;;;;21.80;99.90;;;;;;5035708;28;20546;-72
2022/05/01 10:45:53;;;;;;;;;;;21.90;99.90;;;;;;5065703;28;19925;-69
2022/05/01 10:48:34;;;;;;;;;;;21.60;99.90;;;;;;5048170;28;19920;-78
2022/05/01 10:51:27;;;;;;;;;;;21.50;99.90;;;;;;5052975;28;19990;-79
2022/05/01 10:54:15;;;;;;;;;;;20.90;99.90;;;;;;5052775;28;19909;-79
2022/05/01 10:56:44;;;;;;;;;;;20.70;99.90;;;;;;5049923;28;19971;-79
2022/05/01 10:59:33;;;;;;;;;;;20.50;99.90;;;;;;5053347;28;20047;-76
2022/05/01 11:02:17;;;;;;;;;;;20.40;99.90;;;;;;5060785;28;19995;-75
2022/05/01 11:04:44;;;;;;;;;;;20.40;99.90;;;;;;5047515;28;20391;-72
2022/05/01 11:07:13;;;;;;;;;;;20.20;99.90;;;;;;5048553;28;19955;-75
2022/05/01 11:09:41;;;;;;;;;;;19.80;99.90;;;;;;5052559;28;20273;-73
2022/05/01 11:12:09;;;;;;;;;;;19.50;99.90;;;;;;5054743;28;19924;-79
2022/05/01 11:14:50;;;;;;;;;;;19.80;99.90;;;;;;5049897;28;19925;-75
2022/05/01 11:17:49;;;;;;;;;;;20.00;99.90;;;;;;5041111;28;20386;-75
2022/05/01 11:20:18;;;;;;;;;;;20.10;99.90;;;;;;5043668;28;19920;-77
2022/05/01 11:22:46;;;;;;;;;;;20.50;99.90;;;;;;5051808;28;20450;-76
2022/05/01 11:25:30;;;;;;;;;;;20.30;99.90;;;;;;5050248;28;19924;-77
2022/05/01 11:27:57;;;;;;;;;;;20.30;99.90;;;;;;5047240;28;20016;-76
2022/05/01 11:30:26;;;;;;;;;;;20.80;99.90;;;;;;5049897;28;19920;-75
2022/05/01 11:33:08;;;;;;;;;;;21.00;99.90;;;;;;5042343;28;19925;-77
2022/05/01 11:35:56;;;;;;;;;;;20.80;99.90;;;;;;5034968;28;19955;-77
2022/05/01 11:38:23;;;;;;;;;;;20.90;99.90;;;;;;5045166;28;20517;-77
2022/05/01 11:40:57;;;;;;;;;;;21.00;99.90;;;;;;5033514;28;19925;-76
2022/05/01 11:43:30;;;;;;;;;;;20.90;99.90;;;;;;5053026;28;19921;-75
2022/05/01 11:45:57;;;;;;;;;;;20.90;99.90;;;;;;5042470;28;19951;-74
2022/05/01 11:48:24;;;;;;;;;;;20.70;99.90;;;;;;5046343;28;19927;-74
2022/05/01 11:50:52;;;;;;;;;;;21.20;99.90;;;;;;5029920;28;20430;-76
2022/05/01 11:53:23;;;;;;;;;;;21.60;99.90;;;;;;5045667;28;19920;-75
2022/05/01 12:04:28;;;;;;;;;;;22.40;99.90;;;;;;5048694;28;20024;-74
2022/05/01 12:07:02;;;;;;;;;;;22.80;99.90;;;;;;5046858;28;19921;-74
2022/05/01 12:09:34;;;;;;;;;;;23.20;99.90;;;;;;5047641;28;19925;-74
2022/05/01 12:12:01;;;;;;;;;;;24.10;99.90;;;;;;5047416;28;19938;-75
2022/05/01 12:14:28;;;;;;;;;;;24.30;99.90;;;;;;5049065;28;19921;-75
2022/05/01 12:16:57;;;;;;;;;;;23.10;99.70;;;;;;5049413;28;20368;-74
2022/05/01 12:19:35;;;;;;;;;;;22.00;99.80;;;;;;5059857;28;20023;-76
2022/05/01 12:22:02;;;;;;;;;;;21.20;99.90;;;;;;5053701;28;20355;-75
2022/05/01 12:24:29;;;;;;;;;;;20.70;99.90;;;;;;5041547;28;19959;-75
2022/05/01 12:26:56;;;;;;;;;;;20.30;99.90;;;;;;5048891;28;19925;-76
2022/05/01 12:29:23;;;;;;;;;;;19.90;99.90;;;;;;5049654;28;19920;-74
2022/05/01 12:32:02;;;;;;;;;;;20.00;99.90;;;;;;5051020;28;20022;-75
2022/05/01 12:34:31;;;;;;;;;;;20.10;99.90;;;;;;5049226;28;19982;-74
2022/05/01 12:37:01;;;;;;;;;;;21.20;99.90;;;;;;5046282;28;20334;-74
2022/05/01 12:39:29;;;;;;;;;;;21.80;99.90;;;;;;5035585;28;19924;-74
2022/05/01 12:45:07;;;;;;;;;;;22.20;99.90;;;;;;5050860;28;19971;-70
2022/05/01 12:47:35;;;;;;;;;;;22.60;99.90;;;;;;5047140;28;19952;-71
2022/05/01 12:50:05;;;;;;;;;;;23.40;99.90;;;;;;5045673;28;19935;-73
2022/05/01 12:52:32;;;;;;;;;;;24.20;99.60;;;;;;5048350;28;19929;-72
2022/05/01 12:55:14;;;;;;;;;;;24.70;98.90;;;;;;5044769;28;20066;-73
2022/05/01 12:57:41;;;;;;;;;;;24.80;98.30;;;;;;5046029;28;19959;-72
2022/05/01 13:00:08;;;;;;;;;;;24.90;98.80;;;;;;5045934;28;20644;-72
2022/05/01 13:02:35;;;;;;;;;;;25.00;99.00;;;;;;5046492;28;19932;-71
2022/05/01 13:05:07;;;;;;;;;;;25.20;97.90;;;;;;5044544;28;19925;-73
2022/05/01 13:07:38;;;;;;;;;;;25.80;97.50;;;;;;5039912;28;19971;-74
2022/05/01 13:10:16;;;;;;;;;;;25.40;97.70;;;;;;5075415;28;20003;-74
2022/05/01 13:12:42;;;;;;;;;;;25.20;97.00;;;;;;5047047;28;20383;-74
2022/05/01 13:15:10;;;;;;;;;;;25.40;97.00;;;;;;5044943;28;20035;-74
2022/05/01 13:17:37;;;;;;;;;;;24.70;97.50;;;;;;5044873;28;20123;-74
2022/05/01 13:20:04;;;;;;;;;;;24.50;97.90;;;;;;5068955;28;19921;-74
2022/05/01 13:22:31;;;;;;;;;;;24.40;97.80;;;;;;5074111;28;19921;-73
2022/05/01 13:24:58;;;;;;;;;;;24.30;97.90;;;;;;5043671;28;20004;-73
2022/05/01 13:27:25;;;;;;;;;;;24.20;97.70;;;;;;5045811;28;20011;-72
2022/05/01 13:29:52;;;;;;;;;;;24.00;97.80;;;;;;5042305;28;20019;-74
2022/05/01 13:32:19;;;;;;;;;;;23.70;97.80;;;;;;5046183;28;20007;-76
2022/05/01 13:34:48;;;;;;;;;;;23.30;97.90;;;;;;5048283;28;19964;-74
2022/05/01 13:37:16;;;;;;;;;;;23.10;98.20;;;;;;5055820;28;20290;-74
2022/05/01 13:45:14;;;;;;;;;;;22.40;98.80;;;;;;5046370;28;19931;-74
2022/05/01 13:47:41;;;;;;;;;;;22.30;99.40;;;;;;5045093;28;19990;-74
2022/05/01 13:50:08;;;;;;;;;;;22.40;99.00;;;;;;5045962;28;19931;-74
2022/05/01 13:52:37;;;;;;;;;;;22.20;99.30;;;;;;5048174;28;20682;-74
2022/05/01 13:55:07;;;;;;;;;;;21.80;98.70;;;;;;5045663;28;19950;-74
2022/05/01 13:57:37;;;;;;;;;;;21.80;99.70;;;;;;5047691;28;20015;-74
2022/05/01 14:00:05;;;;;;;;;;;21.80;99.80;;;;;;5044823;28;20567;-74
2022/05/01 14:02:34;;;;;;;;;;;21.90;99.90;;;;;;5034073;28;19929;-74
2022/05/01 14:05:01;;;;;;;;;;;22.10;99.90;;;;;;5042430;28;20524;-74
2022/05/01 14:07:28;;;;;;;;;;;21.80;99.40;;;;;;5040126;28;19939;-74
2022/05/01 14:09:55;;;;;;;;;;;21.80;99.90;;;;;;5039443;28;19943;-73
2022/05/01 14:12:22;;;;;;;;;;;22.20;99.70;;;;;;5047071;28;19955;-74
2022/05/01 14:14:48;;;;;;;;;;;23.00;99.50;;;;;;5048568;28;19925;-74
2022/05/01 14:17:15;;;;;;;;;;;23.70;98.90;;;;;;5049813;28;19956;-72
2022/05/01 14:19:42;;;;;;;;;;;23.00;98.00;;;;;;5050762;28;19950;-72
2022/05/01 14:22:12;;;;;;;;;;;22.60;98.60;;;;;;5049256;28;19929;-73
2022/05/01 14:24:48;;;;;;;;;;;22.40;98.30;;;;;;5053254;28;19960;-72
2022/05/01 14:27:15;;;;;;;;;;;22.40;98.60;;;;;;5049738;28;19925;-73
2022/05/01 14:29:45;;;;;;;;;;;22.10;98.50;;;;;;5049322;28;19933;-74
2022/05/01 14:32:39;;;;;;;;;;;22.10;98.70;;;;;;5055915;28;20019;-73
2022/05/01 14:35:09;;;;;;;;;;;22.30;99.60;;;;;;4995610;28;20029;-73
2022/05/01 14:37:42;;;;;;;;;;;22.40;99.90;;;;;;4986898;28;20061;-73
2022/05/01 14:40:10;;;;;;;;;;;22.20;99.20;;;;;;4989512;28;20418;-74
2022/05/01 14:42:38;;;;;;;;;;;22.10;98.70;;;;;;4986292;28;20600;-73
2022/05/01 14:45:07;;;;;;;;;;;22.30;98.50;;;;;;4987770;28;19932;-73
2022/05/01 14:47:40;;;;;;;;;;;22.70;99.00;;;;;;4987856;28;19945;-74
2022/05/01 14:50:08;;;;;;;;;;;22.30;98.80;;;;;;4986161;28;20051;-74
2022/05/01 14:52:34;;;;;;;;;;;21.50;99.50;;;;;;4983065;28;20436;-74
2022/05/01 14:55:01;;;;;;;;;;;20.90;99.90;;;;;;4987802;28;19929;-74
2022/05/01 14:57:28;;;;;;;;;;;20.60;99.90;;;;;;4986897;28;19925;-73
2022/05/01 15:08:27;;;;;;;;;;;23.90;98.70;;;;;;4991864;28;19926;-74
2022/05/01 15:10:54;;;;;;;;;;;25.30;97.30;;;;;;4986097;28;20058;-75
2022/05/01 15:13:20;;;;;;;;;;;25.10;96.90;;;;;;5047880;28;19931;-74
2022/05/01 15:15:47;;;;;;;;;;;24.10;97.40;;;;;;5043959;28;22237;-73
2022/05/01 15:18:17;;;;;;;;;;;23.40;97.80;;;;;;5047307;28;19924;-73
2022/05/01 15:20:48;;;;;;;;;;;23.50;98.50;;;;;;5045294;28;19983;-75